sensor_id;sensor_type;location;lat;lon;timestamp;P1;durP1;ratioP1;P2;durP2;ratioP2
16159;SDS011;8185;57.818;15.224;2023-11-21T00:00:25;7.57;;;6.17;;
16159;SDS011;8185;57.818;15.224;2023-11-21T00:02:52;7.07;;;5.73;;
16159;SDS011;8185;57.818;15.224;2023-11-21T00:05:19;7.50;;;6.60;;
16159;SDS011;8185;57.818;15.224;2023-11-21T00:07:49;6.97;;;6.37;;
16159;SDS011;8185;57.818;15.224;2023-11-21T00:10:17;6.67;;;6.07;;
16159;SDS011;8185;57.818;15.224;2023-11-21T00:12:44;6.67;;;6.07;;
16159;SDS011;8185;57.818;15.224;2023-11-21T00:15:13;6.60;;;6.00;;
16159;SDS011;8185;57.818;15.224;2023-11-21T00:17:40;6.60;;;6.00;;
16159;SDS011;8185;57.818;15.224;2023-11-21T00:20:09;8.93;;;6.27;;
16159;SDS011;8185;57.818;15.224;2023-11-21T00:22:38;6.83;;;6.07;;
16159;SDS011;8185;57.818;15.224;2023-11-21T00:25:08;7.37;;;6.33;;
16159;SDS011;8185;57.818;15.224;2023-11-21T00:27:36;7.70;;;6.83;;
16159;SDS011;8185;57.818;15.224;2023-11-21T00:30:03;8.10;;;7.03;;
16159;SDS011;8185;57.818;15.224;2023-11-21T00:32:31;7.33;;;6.73;;
16159;SDS011;8185;57.818;15.224;2023-11-21T00:34:59;8.10;;;7.23;;
16159;SDS011;8185;57.818;15.224;2023-11-21T00:37:26;7.83;;;7.13;;
16159;SDS011;8185;57.818;15.224;2023-11-21T00:39:53;8.10;;;7.30;;
16159;SDS011;8185;57.818;15.224;2023-11-21T00:42:22;8.37;;;7.40;;
16159;SDS011;8185;57.818;15.224;2023-11-21T00:44:49;7.90;;;6.87;;
16159;SDS011;8185;57.818;15.224;2023-11-21T00:47:17;7.93;;;7.13;;
16159;SDS011;8185;57.818;15.224;2023-11-21T00:49:44;7.87;;;7.07;;
16159;SDS011;8185;57.818;15.224;2023-11-21T00:52:11;7.80;;;7.00;;
16159;SDS011;8185;57.818;15.224;2023-11-21T00:54:39;7.50;;;6.80;;
16159;SDS011;8185;57.818;15.224;2023-11-21T00:57:06;7.60;;;6.90;;
16159;SDS011;8185;57.818;15.224;2023-11-21T00:59:35;7.33;;;6.63;;
16159;SDS011;8185;57.818;15.224;2023-11-21T01:02:02;8.13;;;7.33;;
16159;SDS011;8185;57.818;15.224;2023-11-21T01:04:30;7.53;;;6.83;;
16159;SDS011;8185;57.818;15.224;2023-11-21T01:06:58;7.87;;;7.07;;
16159;SDS011;8185;57.818;15.224;2023-11-21T01:09:25;8.07;;;7.27;;
16159;SDS011;8185;57.818;15.224;2023-11-21T01:11:53;8.70;;;7.17;;
16159;SDS011;8185;57.818;15.224;2023-11-21T01:14:20;7.47;;;6.57;;
16159;SDS011;8185;57.818;15.224;2023-11-21T01:16:49;7.50;;;6.80;;
16159;SDS011;8185;57.818;15.224;2023-11-21T01:19:16;8.23;;;7.43;;
16159;SDS011;8185;57.818;15.224;2023-11-21T01:21:43;8.50;;;7.07;;
16159;SDS011;8185;57.818;15.224;2023-11-21T01:24:10;8.50;;;7.50;;
16159;SDS011;8185;57.818;15.224;2023-11-21T01:26:38;9.77;;;7.80;;
16159;SDS011;8185;57.818;15.224;2023-11-21T01:29:05;8.80;;;8.00;;
16159;SDS011;8185;57.818;15.224;2023-11-21T01:31:33;9.00;;;8.10;;
16159;SDS011;8185;57.818;15.224;2023-11-21T01:34:01;8.23;;;7.43;;
16159;SDS011;8185;57.818;15.224;2023-11-21T01:36:30;9.00;;;8.20;;
16159;SDS011;8185;57.818;15.224;2023-11-21T01:38:58;9.30;;;8.30;;
16159;SDS011;8185;57.818;15.224;2023-11-21T01:41:26;8.40;;;7.60;;
16159;SDS011;8185;57.818;15.224;2023-11-21T01:43:54;9.63;;;8.17;;
16159;SDS011;8185;57.818;15.224;2023-11-21T01:46:22;10.20;;;7.83;;
16159;SDS011;8185;57.818;15.224;2023-11-21T01:48:50;9.23;;;8.23;;
16159;SDS011;8185;57.818;15.224;2023-11-21T01:51:19;9.57;;;8.37;;
16159;SDS011;8185;57.818;15.224;2023-11-21T01:53:47;9.67;;;8.47;;
16159;SDS011;8185;57.818;15.224;2023-11-21T01:56:14;10.40;;;8.90;;
16159;SDS011;8185;57.818;15.224;2023-11-21T01:58:42;9.97;;;8.97;;
16159;SDS011;8185;57.818;15.224;2023-11-21T02:01:12;10.50;;;9.50;;
16159;SDS011;8185;57.818;15.224;2023-11-21T02:03:39;10.17;;;9.10;;
16159;SDS011;8185;57.818;15.224;2023-11-21T02:06:07;10.73;;;9.63;;
16159;SDS011;8185;57.818;15.224;2023-11-21T02:08:36;10.37;;;9.27;;
16159;SDS011;8185;57.818;15.224;2023-11-21T02:11:04;12.43;;;9.93;;
16159;SDS011;8185;57.818;15.224;2023-11-21T02:13:32;12.57;;;9.03;;
16159;SDS011;8185;57.818;15.224;2023-11-21T02:16:00;10.33;;;9.23;;
16159;SDS011;8185;57.818;15.224;2023-11-21T02:18:27;10.70;;;9.70;;
16159;SDS011;8185;57.818;15.224;2023-11-21T02:20:55;10.57;;;9.47;;
16159;SDS011;8185;57.818;15.224;2023-11-21T02:23:24;10.87;;;9.73;;
16159;SDS011;8185;57.818;15.224;2023-11-21T02:25:54;10.90;;;9.70;;
16159;SDS011;8185;57.818;15.224;2023-11-21T02:28:21;10.93;;;9.83;;
16159;SDS011;8185;57.818;15.224;2023-11-21T02:30:51;10.93;;;9.70;;
16159;SDS011;8185;57.818;15.224;2023-11-21T02:33:21;10.70;;;9.70;;
16159;SDS011;8185;57.818;15.224;2023-11-21T02:35:48;11.77;;;10.53;;
16159;SDS011;8185;57.818;15.224;2023-11-21T02:38:16;11.37;;;10.27;;
16159;SDS011;8185;57.818;15.224;2023-11-21T02:40:45;10.77;;;9.67;;
16159;SDS011;8185;57.818;15.224;2023-11-21T02:43:12;9.80;;;8.90;;
16159;SDS011;8185;57.818;15.224;2023-11-21T02:45:39;10.67;;;9.33;;
16159;SDS011;8185;57.818;15.224;2023-11-21T02:48:07;11.07;;;9.43;;
16159;SDS011;8185;57.818;15.224;2023-11-21T02:50:34;9.77;;;8.87;;
16159;SDS011;8185;57.818;15.224;2023-11-21T02:53:02;9.80;;;8.90;;
16159;SDS011;8185;57.818;15.224;2023-11-21T02:55:31;9.70;;;8.60;;
16159;SDS011;8185;57.818;15.224;2023-11-21T02:58:02;9.40;;;8.50;;
16159;SDS011;8185;57.818;15.224;2023-11-21T03:00:31;9.23;;;8.33;;
16159;SDS011;8185;57.818;15.224;2023-11-21T03:02:58;9.27;;;8.43;;
16159;SDS011;8185;57.818;15.224;2023-11-21T03:05:26;8.97;;;8.17;;
16159;SDS011;8185;57.818;15.224;2023-11-21T03:07:54;8.97;;;8.17;;
16159;SDS011;8185;57.818;15.224;2023-11-21T03:10:21;9.67;;;8.47;;
16159;SDS011;8185;57.818;15.224;2023-11-21T03:12:49;9.63;;;8.60;;
16159;SDS011;8185;57.818;15.224;2023-11-21T03:15:17;9.77;;;8.87;;
16159;SDS011;8185;57.818;15.224;2023-11-21T03:17:45;9.93;;;8.93;;
16159;SDS011;8185;57.818;15.224;2023-11-21T03:20:14;11.10;;;9.97;;
16159;SDS011;8185;57.818;15.224;2023-11-21T03:22:42;10.70;;;9.70;;
16159;SDS011;8185;57.818;15.224;2023-11-21T03:25:09;10.57;;;9.57;;
16159;SDS011;8185;57.818;15.224;2023-11-21T03:27:37;11.13;;;10.00;;
16159;SDS011;8185;57.818;15.224;2023-11-21T03:30:07;11.47;;;10.37;;
16159;SDS011;8185;57.818;15.224;2023-11-21T03:32:37;12.77;;;11.30;;
16159;SDS011;8185;57.818;15.224;2023-11-21T03:35:05;11.87;;;10.57;;
16159;SDS011;8185;57.818;15.224;2023-11-21T03:37:32;12.17;;;10.97;;
16159;SDS011;8185;57.818;15.224;2023-11-21T03:39:59;11.83;;;10.33;;
16159;SDS011;8185;57.818;15.224;2023-11-21T03:42:29;12.27;;;11.07;;
16159;SDS011;8185;57.818;15.224;2023-11-21T03:44:56;10.60;;;9.50;;
16159;SDS011;8185;57.818;15.224;2023-11-21T03:47:23;11.00;;;9.70;;
16159;SDS011;8185;57.818;15.224;2023-11-21T03:49:54;10.50;;;9.47;;
16159;SDS011;8185;57.818;15.224;2023-11-21T03:52:21;12.53;;;9.60;;
16159;SDS011;8185;57.818;15.224;2023-11-21T03:54:48;11.03;;;9.83;;
16159;SDS011;8185;57.818;15.224;2023-11-21T03:57:15;11.40;;;10.17;;
16159;SDS011;8185;57.818;15.224;2023-11-21T03:59:43;11.30;;;10.20;;
16159;SDS011;8185;57.818;15.224;2023-11-21T04:02:10;11.37;;;10.23;;
16159;SDS011;8185;57.818;15.224;2023-11-21T04:04:37;11.13;;;10.03;;
16159;SDS011;8185;57.818;15.224;2023-11-21T04:07:06;10.90;;;9.80;;
16159;SDS011;8185;57.818;15.224;2023-11-21T04:09:33;13.80;;;10.43;;
16159;SDS011;8185;57.818;15.224;2023-11-21T04:12:01;11.73;;;9.70;;
16159;SDS011;8185;57.818;15.224;2023-11-21T04:14:28;11.97;;;10.20;;
16159;SDS011;8185;57.818;15.224;2023-11-21T04:16:56;12.07;;;9.83;;
16159;SDS011;8185;57.818;15.224;2023-11-21T04:19:23;10.63;;;9.37;;
16159;SDS011;8185;57.818;15.224;2023-11-21T04:21:50;10.60;;;9.50;;
16159;SDS011;8185;57.818;15.224;2023-11-21T04:24:19;10.23;;;9.23;;
16159;SDS011;8185;57.818;15.224;2023-11-21T04:26:46;10.23;;;9.23;;
16159;SDS011;8185;57.818;15.224;2023-11-21T04:29:14;9.50;;;8.50;;
16159;SDS011;8185;57.818;15.224;2023-11-21T04:31:41;10.27;;;8.93;;
16159;SDS011;8185;57.818;15.224;2023-11-21T04:34:09;9.50;;;8.47;;
16159;SDS011;8185;57.818;15.224;2023-11-21T04:36:36;9.80;;;8.73;;
16159;SDS011;8185;57.818;15.224;2023-11-21T04:39:03;9.60;;;8.60;;
16159;SDS011;8185;57.818;15.224;2023-11-21T04:41:33;9.23;;;8.33;;
16159;SDS011;8185;57.818;15.224;2023-11-21T04:44:02;9.10;;;7.97;;
16159;SDS011;8185;57.818;15.224;2023-11-21T04:46:30;9.00;;;8.13;;
16159;SDS011;8185;57.818;15.224;2023-11-21T04:48:57;8.93;;;8.00;;
16159;SDS011;8185;57.818;15.224;2023-11-21T04:51:24;9.10;;;8.20;;
16159;SDS011;8185;57.818;15.224;2023-11-21T04:53:52;8.77;;;7.87;;
16159;SDS011;8185;57.818;15.224;2023-11-21T04:56:19;8.23;;;7.53;;
16159;SDS011;8185;57.818;15.224;2023-11-21T04:58:48;7.23;;;6.60;;
16159;SDS011;8185;57.818;15.224;2023-11-21T05:01:15;8.17;;;7.40;;
16159;SDS011;8185;57.818;15.224;2023-11-21T05:03:43;7.57;;;6.77;;
16159;SDS011;8185;57.818;15.224;2023-11-21T05:06:11;7.30;;;6.63;;
16159;SDS011;8185;57.818;15.224;2023-11-21T05:08:39;7.20;;;6.50;;
16159;SDS011;8185;57.818;15.224;2023-11-21T05:11:07;6.63;;;6.03;;
16159;SDS011;8185;57.818;15.224;2023-11-21T05:13:36;6.07;;;5.47;;
16159;SDS011;8185;57.818;15.224;2023-11-21T05:16:06;6.00;;;5.40;;
16159;SDS011;8185;57.818;15.224;2023-11-21T05:18:33;6.50;;;5.90;;
16159;SDS011;8185;57.818;15.224;2023-11-21T05:21:01;6.33;;;5.73;;
16159;SDS011;8185;57.818;15.224;2023-11-21T05:23:30;5.90;;;5.40;;
16159;SDS011;8185;57.818;15.224;2023-11-21T05:25:59;5.93;;;5.43;;
16159;SDS011;8185;57.818;15.224;2023-11-21T05:28:26;6.00;;;5.50;;
16159;SDS011;8185;57.818;15.224;2023-11-21T05:30:53;5.77;;;5.27;;
16159;SDS011;8185;57.818;15.224;2023-11-21T05:33:22;5.27;;;4.87;;
16159;SDS011;8185;57.818;15.224;2023-11-21T05:35:50;5.33;;;4.93;;
16159;SDS011;8185;57.818;15.224;2023-11-21T05:38:18;6.03;;;5.53;;
16159;SDS011;8185;57.818;15.224;2023-11-21T05:40:47;5.70;;;5.20;;
16159;SDS011;8185;57.818;15.224;2023-11-21T05:43:14;5.30;;;4.83;;
16159;SDS011;8185;57.818;15.224;2023-11-21T05:45:41;5.33;;;4.93;;
16159;SDS011;8185;57.818;15.224;2023-11-21T05:48:09;5.50;;;5.07;;
16159;SDS011;8185;57.818;15.224;2023-11-21T05:50:37;5.03;;;4.63;;
16159;SDS011;8185;57.818;15.224;2023-11-21T05:53:05;5.57;;;5.07;;
16159;SDS011;8185;57.818;15.224;2023-11-21T05:55:32;5.30;;;4.90;;
16159;SDS011;8185;57.818;15.224;2023-11-21T05:57:59;5.80;;;5.30;;
16159;SDS011;8185;57.818;15.224;2023-11-21T06:00:26;6.13;;;5.63;;
16159;SDS011;8185;57.818;15.224;2023-11-21T06:02:54;5.80;;;5.30;;
16159;SDS011;8185;57.818;15.224;2023-11-21T06:05:23;5.27;;;4.87;;
16159;SDS011;8185;57.818;15.224;2023-11-21T06:07:53;6.40;;;5.37;;
16159;SDS011;8185;57.818;15.224;2023-11-21T06:10:21;5.90;;;5.40;;
16159;SDS011;8185;57.818;15.224;2023-11-21T06:12:49;5.87;;;5.40;;
16159;SDS011;8185;57.818;15.224;2023-11-21T06:15:16;6.23;;;5.63;;
16159;SDS011;8185;57.818;15.224;2023-11-21T06:17:45;7.23;;;5.63;;
16159;SDS011;8185;57.818;15.224;2023-11-21T06:20:17;5.90;;;5.40;;
16159;SDS011;8185;57.818;15.224;2023-11-21T06:22:45;6.07;;;5.37;;
16159;SDS011;8185;57.818;15.224;2023-11-21T09:27:23;6.20;;;5.57;;
16159;SDS011;8185;57.818;15.224;2023-11-21T09:29:51;5.97;;;5.47;;
16159;SDS011;8185;57.818;15.224;2023-11-21T09:32:18;6.10;;;5.50;;
16159;SDS011;8185;57.818;15.224;2023-11-21T09:34:48;5.60;;;5.10;;
16159;SDS011;8185;57.818;15.224;2023-11-21T09:37:15;6.03;;;5.53;;
16159;SDS011;8185;57.818;15.224;2023-11-21T09:39:43;5.40;;;5.00;;
16159;SDS011;8185;57.818;15.224;2023-11-21T09:42:10;5.00;;;4.60;;
16159;SDS011;8185;57.818;15.224;2023-11-21T09:44:43;4.90;;;4.50;;
16159;SDS011;8185;57.818;15.224;2023-11-21T09:47:15;5.10;;;4.60;;
16159;SDS011;8185;57.818;15.224;2023-11-21T09:49:42;4.17;;;3.87;;
16159;SDS011;8185;57.818;15.224;2023-11-21T09:52:18;5.10;;;4.70;;
16159;SDS011;8185;57.818;15.224;2023-11-21T09:54:50;4.80;;;4.40;;
16159;SDS011;8185;57.818;15.224;2023-11-21T09:57:19;4.47;;;4.07;;
16159;SDS011;8185;57.818;15.224;2023-11-21T09:59:49;4.70;;;4.30;;
16159;SDS011;8185;57.818;15.224;2023-11-21T10:02:21;5.70;;;5.20;;
16159;SDS011;8185;57.818;15.224;2023-11-21T10:04:51;5.87;;;5.37;;
16159;SDS011;8185;57.818;15.224;2023-11-21T10:07:21;6.00;;;5.17;;
16159;SDS011;8185;57.818;15.224;2023-11-21T10:09:49;6.03;;;5.53;;
16159;SDS011;8185;57.818;15.224;2023-11-21T10:12:20;5.57;;;5.07;;
16159;SDS011;8185;57.818;15.224;2023-11-21T10:14:48;6.50;;;5.93;;
16159;SDS011;8185;57.818;15.224;2023-11-21T10:17:17;6.23;;;5.73;;
16159;SDS011;8185;57.818;15.224;2023-11-21T10:19:45;6.13;;;5.63;;
16159;SDS011;8185;57.818;15.224;2023-11-21T10:22:13;5.70;;;5.20;;
16159;SDS011;8185;57.818;15.224;2023-11-21T10:24:43;5.57;;;5.07;;
16159;SDS011;8185;57.818;15.224;2023-11-21T10:27:11;5.53;;;5.03;;
16159;SDS011;8185;57.818;15.224;2023-11-21T10:29:38;5.00;;;4.60;;
16159;SDS011;8185;57.818;15.224;2023-11-21T10:32:07;6.00;;;5.40;;
16159;SDS011;8185;57.818;15.224;2023-11-21T10:34:35;6.53;;;5.83;;
16159;SDS011;8185;57.818;15.224;2023-11-21T10:37:10;5.90;;;5.40;;
16159;SDS011;8185;57.818;15.224;2023-11-21T10:39:38;6.13;;;5.53;;
16159;SDS011;8185;57.818;15.224;2023-11-21T10:42:09;6.73;;;6.13;;
16159;SDS011;8185;57.818;15.224;2023-11-21T10:44:36;5.57;;;5.17;;
16159;SDS011;8185;57.818;15.224;2023-11-21T10:47:04;5.77;;;5.27;;
16159;SDS011;8185;57.818;15.224;2023-11-21T10:49:31;6.10;;;5.60;;
16159;SDS011;8185;57.818;15.224;2023-11-21T10:51:59;5.37;;;4.93;;
16159;SDS011;8185;57.818;15.224;2023-11-21T10:54:26;5.37;;;4.97;;
16159;SDS011;8185;57.818;15.224;2023-11-21T10:56:56;5.97;;;5.10;;
16159;SDS011;8185;57.818;15.224;2023-11-21T10:59:27;5.53;;;5.03;;
16159;SDS011;8185;57.818;15.224;2023-11-21T11:01:57;5.00;;;4.60;;
16159;SDS011;8185;57.818;15.224;2023-11-21T11:04:27;5.10;;;4.70;;
16159;SDS011;8185;57.818;15.224;2023-11-21T11:06:55;4.50;;;4.10;;
16159;SDS011;8185;57.818;15.224;2023-11-21T11:09:24;4.77;;;4.40;;
16159;SDS011;8185;57.818;15.224;2023-11-21T11:11:52;5.07;;;4.67;;
16159;SDS011;8185;57.818;15.224;2023-11-21T11:14:20;5.00;;;4.50;;
16159;SDS011;8185;57.818;15.224;2023-11-21T11:16:52;4.83;;;4.43;;
16159;SDS011;8185;57.818;15.224;2023-11-21T11:19:21;5.20;;;4.70;;
16159;SDS011;8185;57.818;15.224;2023-11-21T11:21:51;4.70;;;4.30;;
16159;SDS011;8185;57.818;15.224;2023-11-21T11:24:36;5.90;;;4.90;;
16159;SDS011;8185;57.818;15.224;2023-11-21T11:27:18;5.47;;;5.07;;
16159;SDS011;8185;57.818;15.224;2023-11-21T11:29:56;6.10;;;5.60;;
16159;SDS011;8185;57.818;15.224;2023-11-21T11:32:37;6.17;;;5.57;;
16159;SDS011;8185;57.818;15.224;2023-11-21T11:35:15;6.10;;;5.50;;
16159;SDS011;8185;57.818;15.224;2023-11-21T11:37:50;6.03;;;5.53;;
16159;SDS011;8185;57.818;15.224;2023-11-21T11:40:18;5.60;;;5.07;;
16159;SDS011;8185;57.818;15.224;2023-11-21T11:42:55;5.73;;;5.07;;
16159;SDS011;8185;57.818;15.224;2023-11-21T11:45:24;5.90;;;5.40;;
16159;SDS011;8185;57.818;15.224;2023-11-21T11:48:01;5.27;;;4.87;;
16159;SDS011;8185;57.818;15.224;2023-11-21T11:50:29;6.00;;;5.50;;
16159;SDS011;8185;57.818;15.224;2023-11-21T11:53:12;5.50;;;5.00;;
16159;SDS011;8185;57.818;15.224;2023-11-21T11:55:40;6.37;;;5.87;;
16159;SDS011;8185;57.818;15.224;2023-11-21T11:58:07;7.47;;;6.77;;
16159;SDS011;8185;57.818;15.224;2023-11-21T12:00:35;7.47;;;6.77;;
16159;SDS011;8185;57.818;15.224;2023-11-21T12:03:07;7.70;;;7.00;;
16159;SDS011;8185;57.818;15.224;2023-11-21T12:05:36;7.70;;;7.00;;
16159;SDS011;8185;57.818;15.224;2023-11-21T12:08:05;7.37;;;6.60;;
16159;SDS011;8185;57.818;15.224;2023-11-21T12:10:34;8.30;;;7.50;;
16159;SDS011;8185;57.818;15.224;2023-11-21T12:13:05;8.17;;;7.47;;
16159;SDS011;8185;57.818;15.224;2023-11-21T12:15:34;8.30;;;7.50;;
16159;SDS011;8185;57.818;15.224;2023-11-21T12:18:01;7.57;;;6.87;;
16159;SDS011;8185;57.818;15.224;2023-11-21T12:20:30;7.73;;;6.93;;
16159;SDS011;8185;57.818;15.224;2023-11-21T12:23:04;8.60;;;7.80;;
16159;SDS011;8185;57.818;15.224;2023-11-21T12:25:32;7.80;;;7.07;;
16159;SDS011;8185;57.818;15.224;2023-11-21T12:28:00;7.63;;;6.93;;
16159;SDS011;8185;57.818;15.224;2023-11-21T12:30:29;7.97;;;7.20;;
16159;SDS011;8185;57.818;15.224;2023-11-21T12:32:58;7.13;;;6.53;;
16159;SDS011;8185;57.818;15.224;2023-11-21T12:35:27;8.40;;;7.60;;
16159;SDS011;8185;57.818;15.224;2023-11-21T12:37:59;7.70;;;7.00;;
16159;SDS011;8185;57.818;15.224;2023-11-21T12:40:29;8.00;;;7.30;;
16159;SDS011;8185;57.818;15.224;2023-11-21T12:42:56;8.37;;;7.57;;
16159;SDS011;8185;57.818;15.224;2023-11-21T12:45:26;8.20;;;7.33;;
16159;SDS011;8185;57.818;15.224;2023-11-21T12:47:56;8.13;;;7.37;;
16159;SDS011;8185;57.818;15.224;2023-11-21T12:50:26;7.13;;;6.53;;
16159;SDS011;8185;57.818;15.224;2023-11-21T12:52:59;7.23;;;6.53;;
16159;SDS011;8185;57.818;15.224;2023-11-21T12:55:30;8.23;;;7.47;;
16159;SDS011;8185;57.818;15.224;2023-11-21T12:57:59;7.40;;;6.60;;
16159;SDS011;8185;57.818;15.224;2023-11-21T13:00:34;7.07;;;6.37;;
16159;SDS011;8185;57.818;15.224;2023-11-21T13:03:03;7.20;;;6.60;;
16159;SDS011;8185;57.818;15.224;2023-11-21T13:05:33;7.07;;;6.47;;
16159;SDS011;8185;57.818;15.224;2023-11-21T13:08:05;6.47;;;5.83;;
16159;SDS011;8185;57.818;15.224;2023-11-21T13:10:35;7.10;;;6.47;;
16159;SDS011;8185;57.818;15.224;2023-11-21T13:13:05;6.83;;;6.23;;
16159;SDS011;8185;57.818;15.224;2023-11-21T13:15:34;7.53;;;6.73;;
16159;SDS011;8185;57.818;15.224;2023-11-21T13:18:01;6.63;;;5.97;;
16159;SDS011;8185;57.818;15.224;2023-11-21T13:20:29;6.30;;;5.80;;
16159;SDS011;8185;57.818;15.224;2023-11-21T13:22:58;6.27;;;5.77;;
16159;SDS011;8185;57.818;15.224;2023-11-21T13:25:28;6.10;;;5.60;;
16159;SDS011;8185;57.818;15.224;2023-11-21T13:27:56;6.60;;;5.90;;
16159;SDS011;8185;57.818;15.224;2023-11-21T13:30:26;6.23;;;5.67;;
16159;SDS011;8185;57.818;15.224;2023-11-21T13:32:59;6.20;;;5.70;;
16159;SDS011;8185;57.818;15.224;2023-11-21T13:35:31;6.20;;;5.60;;
16159;SDS011;8185;57.818;15.224;2023-11-21T13:38:03;5.93;;;5.33;;
16159;SDS011;8185;57.818;15.224;2023-11-21T13:40:33;5.90;;;5.33;;
16159;SDS011;8185;57.818;15.224;2023-11-21T13:43:08;6.87;;;5.70;;
16159;SDS011;8185;57.818;15.224;2023-11-21T13:45:35;5.00;;;4.60;;
16159;SDS011;8185;57.818;15.224;2023-11-21T13:48:05;4.87;;;4.50;;
16159;SDS011;8185;57.818;15.224;2023-11-21T13:50:35;4.80;;;4.40;;
16159;SDS011;8185;57.818;15.224;2023-11-21T13:53:02;4.83;;;4.43;;
16159;SDS011;8185;57.818;15.224;2023-11-21T13:55:45;5.47;;;4.97;;
16159;SDS011;8185;57.818;15.224;2023-11-21T13:58:13;6.27;;;5.67;;
16159;SDS011;8185;57.818;15.224;2023-11-21T14:00:44;5.43;;;4.97;;
16159;SDS011;8185;57.818;15.224;2023-11-21T14:03:21;5.30;;;4.80;;
16159;SDS011;8185;57.818;15.224;2023-11-21T14:05:50;5.33;;;4.93;;
16159;SDS011;8185;57.818;15.224;2023-11-21T14:08:18;4.77;;;4.37;;
16159;SDS011;8185;57.818;15.224;2023-11-21T14:10:47;4.53;;;4.13;;
16159;SDS011;8185;57.818;15.224;2023-11-21T14:13:20;4.90;;;4.50;;
16159;SDS011;8185;57.818;15.224;2023-11-21T14:15:48;4.53;;;4.23;;
16159;SDS011;8185;57.818;15.224;2023-11-21T14:18:23;5.07;;;4.70;;
16159;SDS011;8185;57.818;15.224;2023-11-21T14:20:59;4.40;;;4.10;;
16159;SDS011;8185;57.818;15.224;2023-11-21T14:23:26;4.60;;;4.30;;
16159;SDS011;8185;57.818;15.224;2023-11-21T14:25:56;5.33;;;4.93;;
16159;SDS011;8185;57.818;15.224;2023-11-21T14:28:26;5.23;;;4.73;;
16159;SDS011;8185;57.818;15.224;2023-11-21T14:30:53;5.73;;;5.10;;
